Time;durP1;ratioP1;P1;durP2;ratioP2;P2;SDS_P1;SDS_P2;PMS_P1;PMS_P2;Temp;Humidity;BMP_temperature;BMP_pressure;BME280_temperature;BME280_humidity;BME280_pressure;Samples;Min_cycle;Max_cycle;Signal;HPM_P1;HPM_P2
2022/04/09 00:00:57;;;;;;;9.02;1.85;;;8.80;94.10;;;;;;5012309;28;20069;-69
2022/04/09 00:03:22;;;;;;;6.72;1.25;;;8.80;94.10;;;;;;5012099;28;20034;-68
2022/04/09 00:05:48;;;;;;;3.67;0.90;;;8.70;94.10;;;;;;5012069;28;20088;-68
2022/04/09 00:08:17;;;;;;;3.28;1.10;;;8.70;94.00;;;;;;5030665;28;20045;-68
2022/04/09 00:10:43;;;;;;;9.07;1.35;;;8.70;94.00;;;;;;5032044;28;20036;-69
2022/04/09 00:13:08;;;;;;;13.57;2.65;;;8.70;94.10;;;;;;5024879;28;20037;-68
2022/04/09 00:15:35;;;;;;;13.35;1.38;;;8.70;94.10;;;;;;5011792;28;20371;-68
2022/04/09 00:18:00;;;;;;;8.60;1.17;;;8.70;94.10;;;;;;5011256;28;20030;-68
2022/04/09 00:20:26;;;;;;;8.25;2.03;;;8.70;94.00;;;;;;5024465;28;20033;-69
2022/04/09 00:22:52;;;;;;;10.27;1.45;;;8.70;94.10;;;;;;5012250;28;20038;-68
2022/04/09 00:25:23;;;;;;;6.10;1.35;;;8.70;94.10;;;;;;5012270;28;20120;-69
2022/04/09 00:27:50;;;;;;;5.63;1.30;;;8.60;94.10;;;;;;5023458;28;20103;-69
2022/04/09 00:30:16;;;;;;;12.38;1.67;;;8.60;93.90;;;;;;5019813;28;21668;-68
2022/04/09 00:32:42;;;;;;;8.45;1.60;;;8.60;93.60;;;;;;5029370;28;20037;-68
2022/04/09 00:35:08;;;;;;;16.83;3.10;;;8.70;93.40;;;;;;5028736;28;20022;-68
2022/04/09 00:37:47;;;;;;;9.30;1.70;;;8.60;93.20;;;;;;5031108;28;20550;-68
2022/04/09 00:40:18;;;;;;;19.67;1.75;;;8.60;93.20;;;;;;5030935;28;20091;-68
2022/04/09 00:42:44;;;;;;;5.10;1.40;;;8.50;93.30;;;;;;5024379;28;20053;-69
2022/04/09 00:45:12;;;;;;;18.17;2.42;;;8.50;93.40;;;;;;5024389;28;20038;-69
2022/04/09 00:47:38;;;;;;;11.38;1.80;;;8.50;93.50;;;;;;5026350;28;20048;-68
2022/04/09 00:50:06;;;;;;;10.07;1.63;;;8.50;93.50;;;;;;5031301;28;20382;-69
2022/04/09 00:52:34;;;;;;;10.60;1.75;;;8.60;93.50;;;;;;5016809;28;20045;-69
2022/04/09 00:55:04;;;;;;;7.68;1.60;;;8.60;93.60;;;;;;5031190;28;20041;-69
2022/04/09 00:57:34;;;;;;;4.95;1.27;;;8.50;93.60;;;;;;5013864;28;20519;-68
2022/04/09 01:00:09;;;;;;;3.38;0.93;;;8.60;93.60;;;;;;5038023;28;20138;-68
2022/04/09 01:02:45;;;;;;;13.23;1.85;;;8.60;93.60;;;;;;5011037;28;20045;-68
2022/04/09 01:05:14;;;;;;;2.35;1.02;;;8.60;93.80;;;;;;5024051;28;20465;-68
2022/04/09 01:07:39;;;;;;;10.52;2.05;;;8.50;93.70;;;;;;5011234;28;20033;-68
2022/04/09 01:10:10;;;;;;;0.68;0.35;;;8.50;93.60;;;;;;5029088;28;20116;-68
2022/04/09 01:12:37;;;;;;;9.13;1.33;;;8.50;93.80;;;;;;5018505;28;20115;-68
2022/04/09 01:15:07;;;;;;;9.45;1.25;;;8.40;93.90;;;;;;5018212;28;20038;-68
2022/04/09 01:17:36;;;;;;;3.90;0.80;;;8.40;93.90;;;;;;5029123;28;20124;-68
2022/04/09 01:20:22;;;;;;;4.55;0.63;;;8.40;94.00;;;;;;5025423;28;20030;-68
2022/04/09 01:22:51;;;;;;;1.48;0.57;;;8.40;94.10;;;;;;5010881;28;20117;-68
2022/04/09 01:25:18;;;;;;;2.30;1.10;;;8.40;94.20;;;;;;5009755;28;20026;-68
2022/04/09 01:27:47;;;;;;;2.60;1.05;;;8.40;94.20;;;;;;5029651;28;20068;-68
2022/04/09 01:30:13;;;;;;;2.30;0.90;;;8.40;94.10;;;;;;5033039;28;20094;-68
2022/04/09 01:32:39;;;;;;;8.88;0.90;;;8.30;94.20;;;;;;5021017;28;20025;-68
2022/04/09 01:35:05;;;;;;;5.38;0.75;;;8.30;94.00;;;;;;5033348;28;20038;-68
2022/04/09 01:37:32;;;;;;;3.60;0.98;;;8.30;93.90;;;;;;5033000;28;20132;-68
2022/04/09 01:39:59;;;;;;;3.42;0.73;;;8.20;93.80;;;;;;5023460;28;20477;-69
2022/04/09 01:42:26;;;;;;;4.60;1.02;;;8.30;93.90;;;;;;5027102;28;20036;-69
2022/04/09 01:44:53;;;;;;;8.10;1.30;;;8.20;94.00;;;;;;5024706;28;20033;-68
2022/04/09 01:47:22;;;;;;;8.57;1.50;;;8.20;93.80;;;;;;5033271;28;20531;-68
2022/04/09 01:49:47;;;;;;;2.65;0.80;;;8.20;93.70;;;;;;5021461;28;20046;-68
2022/04/09 01:52:13;;;;;;;5.10;1.20;;;8.20;93.70;;;;;;5033461;28;20104;-68
2022/04/09 01:54:39;;;;;;;4.57;1.10;;;8.30;93.80;;;;;;5020706;28;20049;-68
2022/04/09 01:57:06;;;;;;;2.30;0.80;;;8.30;93.80;;;;;;5013442;28;20121;-68
2022/04/09 01:59:31;;;;;;;5.72;1.05;;;8.40;94.00;;;;;;5012962;28;20545;-68
2022/04/09 02:02:02;;;;;;;4.93;1.25;;;8.30;94.10;;;;;;5031872;28;20402;-68
2022/04/09 02:04:28;;;;;;;0.65;0.57;;;8.30;94.10;;;;;;5025565;28;20024;-69
2022/04/09 02:06:54;;;;;;;2.85;1.02;;;8.30;94.10;;;;;;5030121;28;20040;-68
2022/04/09 02:09:22;;;;;;;2.90;1.00;;;8.20;94.10;;;;;;5027748;28;20496;-68
2022/04/09 02:11:50;;;;;;;3.72;0.75;;;8.20;94.00;;;;;;5017071;28;20054;-68
2022/04/09 02:14:16;;;;;;;1.10;0.75;;;8.10;94.10;;;;;;5022229;28;20061;-68
2022/04/09 02:16:42;;;;;;;3.30;1.08;;;8.00;94.10;;;;;;5017018;28;20121;-68
2022/04/09 02:19:08;;;;;;;2.40;1.25;;;8.00;94.10;;;;;;5017263;28;20113;-68
2022/04/09 02:21:34;;;;;;;3.22;0.80;;;7.90;94.20;;;;;;5026545;28;20116;-68
2022/04/09 02:24:00;;;;;;;0.60;0.60;;;7.90;94.20;;;;;;5014444;28;20113;-69
2022/04/09 02:26:26;;;;;;;3.50;0.80;;;7.90;94.20;;;;;;5027956;28;20127;-68
2022/04/09 02:28:53;;;;;;;1.20;0.55;;;8.00;94.10;;;;;;5021441;28;20042;-68
2022/04/09 02:31:22;;;;;;;6.45;0.75;;;7.90;94.10;;;;;;5028990;28;20491;-68
2022/04/09 02:33:48;;;;;;;2.58;0.80;;;7.90;94.20;;;;;;5030150;28;20476;-68
2022/04/09 02:36:15;;;;;;;4.40;1.30;;;7.90;94.20;;;;;;5033694;28;20432;-68
2022/04/09 02:38:43;;;;;;;0.60;0.60;;;7.80;94.30;;;;;;5031172;28;20057;-68
2022/04/09 02:41:09;;;;;;;0.38;0.38;;;7.80;94.40;;;;;;5028643;28;20793;-68
2022/04/09 02:43:36;;;;;;;2.67;0.95;;;7.80;94.50;;;;;;5030469;28;20397;-68
2022/04/09 02:46:03;;;;;;;1.17;0.63;;;7.70;94.50;;;;;;5013989;28;20021;-68
2022/04/09 02:48:30;;;;;;;3.33;0.90;;;7.70;94.50;;;;;;5019916;28;20041;-68
2022/04/09 02:50:56;;;;;;;1.27;1.05;;;7.70;94.60;;;;;;5033122;28;20034;-68
2022/04/09 02:53:23;;;;;;;0.93;0.57;;;7.60;94.60;;;;;;5031258;28;20445;-68
2022/04/09 02:55:50;;;;;;;5.57;0.98;;;7.60;94.60;;;;;;5021606;28;20037;-68
2022/04/09 02:58:16;;;;;;;1.30;0.77;;;7.60;94.70;;;;;;5045399;28;20034;-68
2022/04/09 03:00:44;;;;;;;2.60;1.33;;;7.50;94.70;;;;;;5031806;28;20389;-68
2022/04/09 03:03:10;;;;;;;2.78;0.95;;;7.50;94.70;;;;;;5013688;28;20065;-68
2022/04/09 03:05:45;;;;;;;5.93;1.42;;;7.50;94.70;;;;;;5032566;28;20021;-68
2022/04/09 03:08:11;;;;;;;11.48;1.38;;;7.50;94.70;;;;;;5013562;28;20100;-68
2022/04/09 03:10:36;;;;;;;15.95;1.25;;;7.50;94.70;;;;;;5028319;28;20151;-68
2022/04/09 03:13:04;;;;;;;0.45;0.45;;;7.50;94.70;;;;;;5026392;28;20580;-68
2022/04/09 03:15:32;;;;;;;3.22;0.93;;;7.50;94.70;;;;;;5012953;28;20022;-68
2022/04/09 03:18:09;;;;;;;4.65;1.40;;;7.50;94.70;;;;;;5011909;28;20029;-68
2022/04/09 03:20:34;;;;;;;1.25;0.45;;;7.50;94.70;;;;;;5028271;28;20030;-68
2022/04/09 03:23:00;;;;;;;8.65;1.42;;;7.50;94.70;;;;;;5020871;28;20025;-69
2022/04/09 03:25:40;;;;;;;5.85;2.08;;;7.40;94.70;;;;;;5014158;28;20034;-69
2022/04/09 03:28:06;;;;;;;13.80;1.25;;;7.40;94.70;;;;;;5023086;28;20099;-69
2022/04/09 03:30:34;;;;;;;8.93;1.17;;;7.40;94.70;;;;;;5009915;28;20030;-69
2022/04/09 03:33:01;;;;;;;3.20;0.70;;;7.40;94.80;;;;;;5011708;28;20041;-69
2022/04/09 03:35:30;;;;;;;4.35;0.93;;;7.40;94.80;;;;;;5031392;28;20199;-68
2022/04/09 03:37:57;;;;;;;7.28;0.95;;;7.40;94.80;;;;;;5025755;28;20114;-69
2022/04/09 03:40:35;;;;;;;5.68;1.05;;;7.40;94.80;;;;;;5039280;28;20034;-68
2022/04/09 03:43:02;;;;;;;2.30;0.70;;;7.30;94.80;;;;;;5021690;28;20029;-69
2022/04/09 03:45:28;;;;;;;5.00;1.77;;;7.30;94.80;;;;;;5030131;28;20029;-68
2022/04/09 03:47:54;;;;;;;4.93;1.50;;;7.30;94.90;;;;;;5020344;28;20038;-68
2022/04/09 03:50:20;;;;;;;3.75;1.30;;;7.30;94.90;;;;;;5012069;28;20064;-68
2022/04/09 03:52:49;;;;;;;2.42;1.13;;;7.30;95.00;;;;;;5022795;28;20030;-69
2022/04/09 03:55:16;;;;;;;2.95;1.02;;;7.20;95.10;;;;;;5023671;28;20021;-69
2022/04/09 03:57:42;;;;;;;5.22;1.38;;;7.20;95.10;;;;;;5038794;28;20033;-69
2022/04/09 04:00:14;;;;;;;3.72;0.82;;;7.20;95.10;;;;;;5035385;28;20136;-68
2022/04/09 04:02:40;;;;;;;2.42;0.93;;;7.10;95.10;;;;;;5038763;28;20047;-68
2022/04/09 04:05:08;;;;;;;5.35;1.17;;;7.20;95.00;;;;;;5022999;28;20132;-68
2022/04/09 04:07:36;;;;;;;4.18;1.05;;;7.20;95.00;;;;;;5024353;28;20567;-68
2022/04/09 04:10:09;;;;;;;8.13;1.17;;;7.10;95.00;;;;;;5029714;28;20128;-68
2022/04/09 04:12:37;;;;;;;14.23;1.17;;;7.20;95.00;;;;;;5017135;28;20041;-69
2022/04/09 04:15:03;;;;;;;2.85;0.50;;;7.20;95.00;;;;;;5021626;28;20129;-68
2022/04/09 04:17:44;;;;;;;7.22;1.08;;;7.10;95.00;;;;;;5016850;28;20088;-68
2022/04/09 04:20:17;;;;;;;2.05;0.93;;;7.10;95.10;;;;;;5037104;28;20040;-68
2022/04/09 04:22:45;;;;;;;0.52;0.50;;;7.00;95.30;;;;;;5029633;28;20551;-68
2022/04/09 04:25:11;;;;;;;4.75;0.82;;;7.10;95.10;;;;;;5018385;28;20153;-68
2022/04/09 04:27:44;;;;;;;2.50;0.95;;;7.00;95.20;;;;;;5026438;28;20036;-68
2022/04/09 04:30:11;;;;;;;4.05;1.48;;;7.00;95.20;;;;;;5030176;28;20034;-68
2022/04/09 04:32:37;;;;;;;8.02;1.48;;;6.90;95.20;;;;;;5032916;28;20030;-68
2022/04/09 04:35:06;;;;;;;0.60;0.60;;;6.90;95.20;;;;;;5030251;28;20540;-68
2022/04/09 04:37:46;;;;;;;1.85;0.63;;;6.90;95.30;;;;;;5029389;28;20477;-68
2022/04/09 04:40:17;;;;;;;1.52;0.57;;;6.90;95.30;;;;;;5029637;28;20525;-68
2022/04/09 04:42:50;;;;;;;13.88;1.80;;;6.80;95.30;;;;;;5018842;28;20087;-68
2022/04/09 04:45:17;;;;;;;6.22;1.70;;;6.80;95.30;;;;;;5027611;28;20040;-67
2022/04/09 04:47:48;;;;;;;5.40;0.70;;;6.80;95.30;;;;;;5019552;28;20114;-67
2022/04/09 04:50:21;;;;;;;1.77;0.80;;;6.80;95.30;;;;;;5016737;28;20050;-68
2022/04/09 04:52:47;;;;;;;6.45;0.75;;;6.90;95.30;;;;;;5030024;28;20030;-67
2022/04/09 04:55:16;;;;;;;1.13;0.60;;;6.80;95.30;;;;;;5028317;28;20041;-68
2022/04/09 04:57:47;;;;;;;3.70;1.05;;;6.80;95.30;;;;;;5017585;28;20026;-67
2022/04/09 05:00:21;;;;;;;3.83;1.30;;;6.80;95.30;;;;;;5033309;28;20131;-68
2022/04/09 05:02:46;;;;;;;3.03;1.08;;;6.80;95.30;;;;;;5027477;28;20036;-68
2022/04/09 05:05:15;;;;;;;0.52;0.50;;;6.90;95.40;;;;;;5028708;28;20025;-65
2022/04/09 05:07:46;;;;;;;2.28;0.95;;;6.80;95.30;;;;;;5023471;28;20026;-69
2022/04/09 05:10:14;;;;;;;5.53;1.10;;;6.90;95.30;;;;;;5028417;28;20612;-68
2022/04/09 05:12:41;;;;;;;2.85;0.93;;;6.90;95.40;;;;;;5028574;28;20030;-69
2022/04/09 05:15:10;;;;;;;7.13;1.25;;;6.90;95.30;;;;;;5028270;28;20089;-69
2022/04/09 05:17:37;;;;;;;7.97;1.50;;;6.90;95.30;;;;;;5028176;28;20026;-69
2022/04/09 05:20:08;;;;;;;7.05;1.23;;;6.90;95.40;;;;;;5028921;28;20040;-68
2022/04/09 05:22:36;;;;;;;11.82;1.65;;;6.90;95.40;;;;;;5029376;28;20475;-68
2022/04/09 05:25:07;;;;;;;0.98;0.45;;;6.90;95.40;;;;;;5028445;28;20487;-68
2022/04/09 05:27:33;;;;;;;0.63;0.63;;;6.90;95.40;;;;;;5028587;28;20033;-68
2022/04/09 05:30:03;;;;;;;2.45;0.60;;;6.90;95.40;;;;;;5028286;28;20056;-68
2022/04/09 05:32:36;;;;;;;4.53;1.20;;;6.90;95.40;;;;;;5028298;28;20026;-68
2022/04/09 05:35:04;;;;;;;3.72;1.35;;;7.00;95.40;;;;;;5042511;28;20041;-68
2022/04/09 05:37:31;;;;;;;4.13;0.70;;;6.90;95.30;;;;;;5027637;28;20060;-68
2022/04/09 05:39:57;;;;;;;4.28;0.80;;;7.00;95.30;;;;;;5028064;28;20026;-68
2022/04/09 05:42:26;;;;;;;1.13;0.90;;;6.90;95.30;;;;;;5028611;28;20034;-68
2022/04/09 05:44:53;;;;;;;7.72;1.42;;;6.90;95.40;;;;;;5044503;28;20068;-68
2022/04/09 05:47:21;;;;;;;22.48;1.80;;;6.90;95.40;;;;;;5028523;28;20036;-68
2022/04/09 05:49:47;;;;;;;3.53;0.90;;;6.90;95.40;;;;;;5029025;28;20342;-68
2022/04/09 05:52:13;;;;;;;3.53;1.23;;;6.90;95.50;;;;;;5029292;28;20104;-68
2022/04/09 05:54:40;;;;;;;4.40;1.10;;;6.90;95.60;;;;;;5028186;28;20122;-69
2022/04/09 05:57:06;;;;;;;3.00;1.15;;;6.90;95.70;;;;;;5027957;28;20049;-68
2022/04/09 05:59:36;;;;;;;10.10;1.60;;;6.80;95.80;;;;;;5028026;28;20123;-68
2022/04/09 06:02:06;;;;;;;6.03;1.15;;;6.70;95.90;;;;;;5028611;28;20061;-68
2022/04/09 06:04:31;;;;;;;2.92;0.68;;;6.80;96.10;;;;;;5027551;28;20025;-69
2022/04/09 06:07:00;;;;;;;1.17;0.63;;;6.80;96.20;;;;;;5028247;28;20036;-68
2022/04/09 06:09:28;;;;;;;0.40;0.40;;;6.80;96.30;;;;;;5028627;28;20030;-68
2022/04/09 06:12:01;;;;;;;3.30;0.90;;;6.80;96.30;;;;;;5016126;28;20080;-69
2022/04/09 06:14:34;;;;;;;1.17;0.80;;;6.80;96.30;;;;;;5018890;28;20083;-71
2022/04/09 06:17:03;;;;;;;7.88;1.33;;;6.90;96.30;;;;;;5032913;28;20034;-68
2022/04/09 06:19:29;;;;;;;6.07;1.80;;;6.90;96.20;;;;;;5033086;28;20047;-69
2022/04/09 06:21:56;;;;;;;0.60;0.57;;;6.90;96.20;;;;;;5033003;28;20408;-69
2022/04/09 06:24:23;;;;;;;3.17;0.75;;;6.90;96.20;;;;;;5033984;28;20033;-69
2022/04/09 06:26:49;;;;;;;7.65;2.13;;;7.00;96.20;;;;;;5032261;28;20083;-68
2022/04/09 06:29:15;;;;;;;2.13;0.60;;;6.90;96.20;;;;;;5032750;28;20388;-68
2022/04/09 06:31:47;;;;;;;1.02;0.85;;;7.00;96.20;;;;;;5032735;28;20110;-68
2022/04/09 06:34:22;;;;;;;8.15;1.05;;;7.00;96.20;;;;;;5027678;28;20025;-69
2022/04/09 06:36:50;;;;;;;7.88;1.08;;;7.00;96.20;;;;;;5026322;28;20365;-69
2022/04/09 06:39:18;;;;;;;7.68;1.35;;;7.00;96.20;;;;;;5030865;28;20079;-69
2022/04/09 06:41:44;;;;;;;6.68;1.77;;;7.00;96.30;;;;;;5032189;28;20120;-68
2022/04/09 06:44:16;;;;;;;1.08;0.55;;;7.00;96.30;;;;;;5033649;28;20029;-68
2022/04/09 06:46:48;;;;;;;3.33;1.10;;;7.00;96.60;;;;;;5031557;28;20030;-68
2022/04/09 06:49:31;;;;;;;7.57;1.65;;;7.10;96.40;;;;;;5033339;28;20129;-68
2022/04/09 06:52:09;;;;;;;0.60;0.57;;;7.10;96.40;;;;;;5033029;28;20029;-69
2022/04/09 06:54:57;;;;;;;9.88;1.10;;;7.10;96.50;;;;;;5030874;28;20128;-69
2022/04/09 06:57:28;;;;;;;2.95;0.88;;;7.10;96.50;;;;;;5031139;28;20061;-69
2022/04/09 06:59:57;;;;;;;2.65;0.57;;;7.10;96.60;;;;;;5030947;28;20378;-67
2022/04/09 07:02:24;;;;;;;4.35;1.40;;;7.10;96.70;;;;;;5030878;28;20722;-68
2022/04/09 07:04:51;;;;;;;2.85;0.88;;;7.10;96.80;;;;;;5029078;28;20048;-68
2022/04/09 07:07:23;;;;;;;6.90;1.48;;;7.10;96.90;;;;;;5030343;28;20022;-67
2022/04/09 07:09:50;;;;;;;6.05;1.45;;;7.10;97.00;;;;;;5030492;28;20041;-68
2022/04/09 07:12:16;;;;;;;6.65;0.98;;;7.10;97.10;;;;;;5031417;28;20030;-68
2022/04/09 07:14:42;;;;;;;9.95;1.58;;;7.10;97.10;;;;;;5031244;28;20040;-66
2022/04/09 07:17:08;;;;;;;3.00;1.15;;;7.10;97.20;;;;;;5031638;28;20013;-66
2022/04/09 07:19:34;;;;;;;8.23;1.75;;;7.20;97.30;;;;;;5031405;28;20046;-66
2022/04/09 07:21:59;;;;;;;3.30;0.82;;;7.20;97.30;;;;;;5030049;28;20021;-66
2022/04/09 07:24:25;;;;;;;9.85;2.25;;;7.20;97.40;;;;;;5030633;28;20029;-65
2022/04/09 07:26:51;;;;;;;2.08;0.70;;;7.20;97.40;;;;;;5029853;28;20033;-66
2022/04/09 07:29:17;;;;;;;6.72;1.95;;;7.30;97.50;;;;;;5029620;28;20041;-66
2022/04/09 07:31:43;;;;;;;6.22;1.70;;;7.30;97.50;;;;;;5031665;28;20029;-66
2022/04/09 07:34:11;;;;;;;7.85;1.63;;;7.30;97.60;;;;;;5031426;28;20037;-67
2022/04/09 07:36:38;;;;;;;5.78;1.02;;;7.40;97.60;;;;;;5031308;28;21807;-68
2022/04/09 07:39:05;;;;;;;10.73;1.50;;;7.40;97.60;;;;;;5031571;28;20113;-66
2022/04/09 07:41:31;;;;;;;10.63;1.90;;;7.50;97.60;;;;;;5030957;28;20035;-67
2022/04/09 07:43:57;;;;;;;7.40;1.50;;;7.50;97.50;;;;;;5029383;28;20120;-68
2022/04/09 07:46:23;;;;;;;2.75;1.52;;;7.60;97.10;;;;;;5031190;28;20034;-66
2022/04/09 07:48:49;;;;;;;4.28;1.38;;;7.60;97.30;;;;;;5025596;28;20060;-67
2022/04/09 07:51:18;;;;;;;9.75;2.00;;;7.60;97.40;;;;;;5027004;28;20465;-67
2022/04/09 07:53:44;;;;;;;3.35;1.10;;;7.70;97.40;;;;;;5027990;28;20133;-66
2022/04/09 07:56:10;;;;;;;6.25;1.40;;;7.70;97.20;;;;;;5029586;28;20100;-66
2022/04/09 07:58:35;;;;;;;3.25;1.30;;;7.70;97.10;;;;;;5028473;28;20091;-65
2022/04/09 08:01:01;;;;;;;3.53;1.48;;;7.70;97.20;;;;;;5029939;28;20048;-65
2022/04/09 08:03:27;;;;;;;7.15;1.25;;;7.80;97.30;;;;;;5029197;28;20449;-66
2022/04/09 08:05:53;;;;;;;4.70;1.15;;;7.80;97.40;;;;;;5029841;28;20492;-65
2022/04/09 08:08:19;;;;;;;19.13;3.80;;;7.80;97.30;;;;;;5030664;28;20037;-66
2022/04/09 08:10:45;;;;;;;4.03;1.38;;;7.90;96.80;;;;;;5029335;28;21165;-65
2022/04/09 08:13:10;;;;;;;4.10;1.27;;;7.90;97.10;;;;;;5029525;28;20025;-65
2022/04/09 08:15:37;;;;;;;13.85;1.58;;;8.00;97.30;;;;;;5029757;28;20030;-65
2022/04/09 08:18:07;;;;;;;9.00;1.50;;;8.00;97.30;;;;;;5029009;28;20079;-66
2022/04/09 08:20:33;;;;;;;8.43;1.95;;;8.00;97.10;;;;;;5029633;28;20061;-65
2022/04/09 08:23:00;;;;;;;12.15;1.63;;;8.10;97.20;;;;;;5029385;28;20037;-66
2022/04/09 08:25:29;;;;;;;6.60;1.33;;;8.10;97.10;;;;;;5026392;28;20029;-65
2022/04/09 08:27:55;;;;;;;6.30;1.08;;;8.00;96.90;;;;;;5029656;28;20033;-65
2022/04/09 08:30:22;;;;;;;4.97;0.93;;;8.10;97.10;;;;;;5030157;28;20052;-65
2022/04/09 08:32:49;;;;;;;2.88;0.70;;;8.10;97.10;;;;;;5029013;28;20033;-64
2022/04/09 08:35:18;;;;;;;1.10;0.52;;;8.10;96.80;;;;;;5028429;28;20377;-67
2022/04/09 08:37:52;;;;;;;0.85;0.60;;;8.10;96.80;;;;;;5029223;28;20044;-71
2022/04/09 08:40:20;;;;;;;1.50;0.40;;;8.20;96.90;;;;;;5029883;28;20077;-66
2022/04/09 08:42:46;;;;;;;6.40;1.17;;;8.10;96.50;;;;;;5024041;28;20473;-65
2022/04/09 08:45:12;;;;;;;4.38;1.10;;;8.10;96.50;;;;;;5025805;28;20029;-66
2022/04/09 08:47:41;;;;;;;0.68;0.68;;;8.20;96.20;;;;;;5027417;28;20022;-65
2022/04/09 08:50:09;;;;;;;13.80;1.98;;;8.20;96.60;;;;;;5027108;28;20088;-65
2022/04/09 08:52:39;;;;;;;9.15;2.00;;;8.20;96.60;;;;;;5025434;28;20396;-65
2022/04/09 08:55:06;;;;;;;6.88;1.80;;;8.20;96.90;;;;;;5026803;28;20104;-66
2022/04/09 08:57:34;;;;;;;3.92;1.00;;;8.30;96.70;;;;;;5024403;28;20041;-66
2022/04/09 09:00:07;;;;;;;12.23;1.65;;;8.30;96.30;;;;;;5025282;28;20045;-66
2022/04/09 09:02:36;;;;;;;6.77;1.33;;;8.30;96.20;;;;;;5026199;28;20117;-66
2022/04/09 09:05:02;;;;;;;8.25;1.20;;;8.30;96.20;;;;;;5027141;28;20632;-66
2022/04/09 09:07:28;;;;;;;10.48;1.05;;;8.30;96.10;;;;;;5026646;28;20037;-65
2022/04/09 09:10:16;;;;;;;5.72;1.55;;;8.30;96.00;;;;;;5026336;28;20056;-65
2022/04/09 09:12:42;;;;;;;3.08;0.85;;;8.40;96.10;;;;;;5026790;28;20033;-65
2022/04/09 09:15:09;;;;;;;5.32;0.95;;;8.40;96.20;;;;;;5021563;28;20053;-65
2022/04/09 09:17:35;;;;;;;5.93;0.85;;;8.40;96.20;;;;;;5039604;28;20608;-65
2022/04/09 09:20:01;;;;;;;3.75;1.48;;;8.40;96.30;;;;;;5025232;28;20104;-65
2022/04/09 09:22:40;;;;;;;3.50;0.73;;;8.40;96.60;;;;;;5026044;28;20392;-65
2022/04/09 09:25:10;;;;;;;1.50;0.80;;;8.40;96.40;;;;;;5027665;28;20079;-65
2022/04/09 09:27:37;;;;;;;5.38;0.60;;;8.40;96.50;;;;;;5026623;28;20041;-65
2022/04/09 09:30:04;;;;;;;2.90;0.90;;;8.40;96.40;;;;;;5028167;28;20037;-65
2022/04/09 09:32:30;;;;;;;3.72;1.05;;;8.40;96.50;;;;;;5026420;28;20102;-65
2022/04/09 09:34:57;;;;;;;3.67;1.02;;;8.40;96.50;;;;;;5025741;28;20649;-67
2022/04/09 09:37:24;;;;;;;1.50;0.63;;;8.40;96.60;;;;;;5025903;28;20021;-66
2022/04/09 09:39:51;;;;;;;14.43;1.63;;;8.50;96.70;;;;;;5026666;28;20179;-66
2022/04/09 09:42:26;;;;;;;16.25;1.77;;;8.50;96.80;;;;;;5028337;28;20045;-65
2022/04/09 09:44:52;;;;;;;4.38;1.38;;;8.60;97.00;;;;;;5024693;28;20087;-65
2022/04/09 09:47:17;;;;;;;5.18;0.90;;;8.60;97.00;;;;;;5025845;28;20104;-66
2022/04/09 09:49:56;;;;;;;12.02;1.95;;;8.60;97.10;;;;;;5029665;28;20575;-66
2022/04/09 09:52:28;;;;;;;7.47;1.63;;;8.70;97.00;;;;;;5031749;28;20554;-66
2022/04/09 09:55:15;;;;;;;3.93;1.10;;;8.70;96.80;;;;;;5029497;28;20462;-65
2022/04/09 09:57:46;;;;;;;8.07;1.27;;;8.70;96.90;;;;;;5029436;28;20276;-65
2022/04/09 10:00:14;;;;;;;11.52;2.28;;;8.80;96.90;;;;;;5032216;28;20045;-65
2022/04/09 10:02:40;;;;;;;10.52;1.45;;;8.80;96.70;;;;;;5034460;28;20033;-65
2022/04/09 10:05:07;;;;;;;4.45;1.25;;;8.90;96.60;;;;;;5033836;28;20103;-65
2022/04/09 10:07:34;;;;;;;8.80;1.45;;;8.90;96.60;;;;;;5033742;28;20029;-65
2022/04/09 10:10:04;;;;;;;5.82;1.15;;;8.90;96.60;;;;;;5032759;28;20037;-65
2022/04/09 10:12:38;;;;;;;2.38;0.77;;;9.00;96.50;;;;;;5033250;28;20425;-65
2022/04/09 10:15:04;;;;;;;5.50;1.02;;;9.00;95.90;;;;;;5033429;28;20033;-65
2022/04/09 10:17:31;;;;;;;2.08;0.63;;;9.00;96.20;;;;;;5032662;28;20037;-65
2022/04/09 10:19:59;;;;;;;4.40;0.98;;;8.90;96.30;;;;;;5032928;28;20040;-65
2022/04/09 10:22:41;;;;;;;4.75;1.17;;;8.90;96.30;;;;;;5033475;28;20026;-65
2022/04/09 10:25:08;;;;;;;3.30;0.77;;;8.90;95.90;;;;;;5032271;28;20048;-65
2022/04/09 10:27:38;;;;;;;1.02;0.55;;;8.90;95.60;;;;;;5033255;28;20024;-66
2022/04/09 10:30:28;;;;;;;2.30;0.60;;;8.90;95.40;;;;;;5033411;28;20033;-66
2022/04/09 10:32:59;;;;;;;1.30;0.68;;;8.90;95.10;;;;;;5032066;28;20060;-65
2022/04/09 10:35:39;;;;;;;3.33;0.77;;;8.90;94.80;;;;;;5033058;28;20061;-65
2022/04/09 10:38:07;;;;;;;5.25;0.70;;;8.80;94.90;;;;;;5032421;28;20439;-66
2022/04/09 10:40:55;;;;;;;0.43;0.43;;;8.90;95.70;;;;;;5029870;28;20041;-66
2022/04/09 10:43:24;;;;;;;0.77;0.40;;;8.90;96.10;;;;;;5030277;28;20042;-65
2022/04/09 10:46:02;;;;;;;2.50;0.55;;;8.90;96.30;;;;;;5030941;28;20034;-67
2022/04/09 10:48:29;;;;;;;3.80;1.27;;;8.90;96.40;;;;;;5025894;28;20034;-66
2022/04/09 10:51:08;;;;;;;10.77;1.27;;;9.00;96.50;;;;;;5028322;28;20030;-66
2022/04/09 10:53:35;;;;;;;1.33;0.68;;;9.00;96.70;;;;;;5028757;28;20178;-66
2022/04/09 10:56:32;;;;;;;5.47;0.95;;;9.00;96.80;;;;;;5030251;28;20021;-66
2022/04/09 10:59:08;;;;;;;4.32;0.90;;;9.00;96.80;;;;;;5030300;28;20033;-66
2022/04/09 11:01:46;;;;;;;1.45;0.73;;;9.10;97.10;;;;;;5029572;28;20091;-66
2022/04/09 11:04:31;;;;;;;0.90;0.57;;;9.10;96.70;;;;;;5032830;28;20120;-66
2022/04/09 11:07:16;;;;;;;1.20;0.60;;;9.10;97.10;;;;;;5029260;28;20481;-67
2022/04/09 11:09:42;;;;;;;13.40;1.63;;;9.10;97.20;;;;;;5031607;28;20048;-67
2022/04/09 11:12:08;;;;;;;3.08;1.08;;;9.10;97.20;;;;;;5032791;28;20025;-66
2022/04/09 11:14:54;;;;;;;2.28;0.80;;;9.10;97.20;;;;;;5030169;28;20099;-67
2022/04/09 11:17:23;;;;;;;7.50;1.20;;;9.20;97.30;;;;;;5030580;28;20116;-67
2022/04/09 11:19:50;;;;;;;4.30;1.00;;;9.20;97.30;;;;;;5030233;28;20041;-66
2022/04/09 11:22:17;;;;;;;2.95;1.25;;;9.20;97.20;;;;;;5025800;28;20687;-67
2022/04/09 11:24:46;;;;;;;4.75;1.23;;;9.30;97.30;;;;;;5020568;28;20033;-66
2022/04/09 11:27:11;;;;;;;10.85;1.05;;;9.30;96.90;;;;;;5019629;28;20042;-66
2022/04/09 11:29:42;;;;;;;1.55;1.35;;;9.40;97.30;;;;;;5025444;28;20041;-67
2022/04/09 11:32:18;;;;;;;6.22;1.15;;;9.40;97.40;;;;;;5026718;28;20033;-66
2022/04/09 11:34:55;;;;;;;3.95;0.82;;;9.50;97.10;;;;;;5025476;28;20117;-67
2022/04/09 11:37:29;;;;;;;10.38;1.90;;;9.50;96.90;;;;;;5027469;28;20021;-67
2022/04/09 11:39:58;;;;;;;9.65;1.77;;;9.50;96.00;;;;;;5024896;28;20053;-68
2022/04/09 11:42:26;;;;;;;9.43;1.70;;;9.60;94.90;;;;;;5025166;28;20052;-67
2022/04/09 11:44:52;;;;;;;5.82;1.15;;;9.60;93.30;;;;;;5028117;28;20049;-67
2022/04/09 11:47:25;;;;;;;5.90;1.30;;;9.70;94.40;;;;;;5028051;28;20120;-68
2022/04/09 11:49:54;;;;;;;6.53;1.58;;;9.70;94.80;;;;;;5027082;28;20141;-68
2022/04/09 11:52:29;;;;;;;6.30;1.15;;;9.80;95.10;;;;;;5029482;28;20075;-67
2022/04/09 11:55:01;;;;;;;11.73;2.05;;;9.80;94.40;;;;;;5030415;28;20152;-67
2022/04/09 11:57:29;;;;;;;1.27;0.65;;;9.80;92.40;;;;;;5019529;28;20030;-67
2022/04/09 11:59:55;;;;;;;5.20;1.40;;;9.80;94.30;;;;;;5029512;28;20053;-67
2022/04/09 12:02:26;;;;;;;12.13;1.67;;;9.80;95.10;;;;;;5029554;28;20030;-67
2022/04/09 12:04:55;;;;;;;4.85;1.05;;;9.90;94.80;;;;;;5030471;28;20041;-68
2022/04/09 12:07:24;;;;;;;7.03;1.60;;;9.90;95.20;;;;;;5027739;28;20417;-67
2022/04/09 12:09:51;;;;;;;7.93;1.92;;;10.00;94.90;;;;;;5028697;28;20051;-73
2022/04/09 12:12:19;;;;;;;17.67;1.90;;;10.00;93.40;;;;;;5028744;28;20048;-67
2022/04/09 12:14:57;;;;;;;15.80;2.30;;;10.00;93.80;;;;;;5024299;28;20030;-67
2022/04/09 12:17:32;;;;;;;3.33;1.33;;;10.10;93.40;;;;;;5010403;28;20038;-67
2022/04/09 12:19:58;;;;;;;5.00;1.48;;;10.10;94.50;;;;;;4999111;28;20042;-67
2022/04/09 12:22:24;;;;;;;7.35;1.45;;;10.10;95.10;;;;;;5016959;28;20112;-67
2022/04/09 12:24:52;;;;;;;4.07;0.73;;;10.10;95.50;;;;;;5030059;28;20076;-67
2022/04/09 12:27:22;;;;;;;5.57;0.82;;;10.10;96.10;;;;;;5030706;28;20038;-67
2022/04/09 12:30:00;;;;;;;2.63;1.33;;;10.10;96.20;;;;;;5018800;28;20096;-67
2022/04/09 12:32:26;;;;;;;5.03;1.00;;;10.20;96.00;;;;;;5030480;28;20049;-67
2022/04/09 12:34:57;;;;;;;6.43;1.55;;;10.10;95.80;;;;;;5012683;28;20037;-66
2022/04/09 12:37:24;;;;;;;9.32;1.50;;;10.20;95.90;;;;;;5013276;28;20054;-67
2022/04/09 12:39:50;;;;;;;8.05;1.48;;;10.20;94.00;;;;;;5028375;28;20041;-66
2022/04/09 12:42:36;;;;;;;12.82;1.92;;;10.20;94.80;;;;;;5027091;28;20047;-66
2022/04/09 12:45:22;;;;;;;7.90;1.75;;;10.30;94.30;;;;;;5018360;28;21203;-67
2022/04/09 12:47:56;;;;;;;4.45;1.17;;;10.50;94.90;;;;;;5015438;28;20036;-67
2022/04/09 12:50:29;;;;;;;7.93;1.77;;;10.60;94.80;;;;;;5024700;28;20042;-67
2022/04/09 12:53:03;;;;;;;9.60;2.33;;;10.50;95.10;;;;;;5028402;28;20049;-67
2022/04/09 12:55:33;;;;;;;4.20;1.15;;;10.70;96.20;;;;;;5028377;28;20515;-67
2022/04/09 12:58:01;;;;;;;1.98;0.57;;;10.70;96.40;;;;;;5043700;28;20558;-67
2022/04/09 13:00:32;;;;;;;17.38;0.93;;;10.70;96.70;;;;;;5024103;28;20046;-67
2022/04/09 13:02:59;;;;;;;8.20;1.30;;;10.80;96.80;;;;;;4993957;28;20041;-67
2022/04/09 13:05:27;;;;;;;9.82;1.33;;;10.80;96.40;;;;;;5024240;28;20049;-67